createdAt,value
2018-09-11T14:06:31.928Z,25.70
2018-09-11T14:09:01.893Z,25.70
2018-09-11T14:11:32.627Z,25.60
2018-09-11T14:14:03.073Z,25.70
2018-09-11T14:16:34.629Z,25.80
2018-09-11T14:19:04.792Z,25.80
2018-09-11T14:21:35.156Z,25.70
2018-09-11T14:24:06.157Z,25.70
2018-09-11T14:26:36.349Z,25.70
2018-09-11T14:29:06.890Z,25.70
2018-09-11T14:31:37.367Z,25.50
2018-09-11T14:34:08.865Z,25.40
2018-09-11T14:36:39.054Z,25.40
2018-09-11T14:39:11.063Z,25.50
2018-09-11T14:41:42.002Z,25.70
2018-09-11T14:44:12.947Z,25.60
2018-09-11T14:46:43.998Z,25.60
2018-09-11T14:49:14.890Z,25.60
2018-09-11T14:51:47.040Z,25.60
2018-09-11T14:54:17.913Z,25.80
2018-09-11T14:56:49.016Z,26.10
2018-09-11T14:59:20.742Z,26.00
2018-09-11T15:01:52.130Z,26.30
2018-09-11T15:04:22.753Z,26.60
2018-09-11T15:06:53.398Z,26.70
2018-09-11T15:09:24.754Z,26.50
2018-09-11T15:11:57.165Z,26.50
2018-09-11T15:14:27.730Z,26.50
2018-09-11T15:16:58.572Z,26.70
2018-09-11T15:19:29.941Z,26.70
2018-09-11T15:22:01.293Z,26.60
2018-09-11T15:24:31.830Z,26.40
2018-09-11T15:27:02.661Z,26.40
2018-09-11T15:29:33.981Z,26.40
2018-09-11T15:32:05.406Z,26.50
2018-09-11T15:34:36.171Z,26.40
2018-09-11T15:37:07.147Z,26.40
2018-09-11T15:39:38.641Z,26.40
2018-09-11T15:42:08.980Z,26.40
2018-09-11T15:44:39.549Z,26.40
2018-09-11T15:47:10.666Z,26.50
2018-09-11T15:49:42.296Z,26.40
2018-09-11T15:52:16.319Z,26.20
2018-09-11T15:54:47.329Z,25.90
2018-09-11T15:57:19.125Z,25.60
2018-09-11T15:59:50.846Z,25.30
2018-09-11T16:02:21.886Z,25.00
2018-09-11T16:04:52.894Z,24.80
2018-09-11T16:07:25.163Z,24.70
2018-09-11T16:09:57.723Z,24.60
2018-09-11T16:12:29.880Z,24.40
2018-09-11T16:15:00.976Z,24.30
2018-09-11T16:17:32.801Z,24.20
2018-09-11T16:20:08.773Z,24.10
2018-09-11T16:22:39.717Z,24.10
2018-09-11T16:25:10.965Z,24.00
2018-09-11T16:27:42.322Z,23.90
2018-09-11T16:30:13.762Z,23.80
2018-09-11T16:32:45.144Z,23.70
2018-09-11T16:35:17.088Z,23.70
2018-09-11T16:37:48.818Z,23.70
2018-09-11T16:40:19.801Z,23.80
2018-09-11T16:42:50.142Z,23.70
2018-09-11T16:45:20.482Z,23.60
2018-09-11T16:47:50.976Z,23.60
2018-09-11T16:50:22.581Z,23.50
2018-09-11T16:52:52.956Z,23.50
2018-09-11T16:55:23.190Z,23.40
2018-09-11T16:57:54.489Z,23.30
2018-09-11T17:00:26.318Z,23.20
2018-09-11T17:02:57.646Z,23.10
2018-09-11T17:05:28.277Z,23.00
2018-09-11T17:07:59.445Z,22.90
2018-09-11T17:10:30.569Z,22.80
2018-09-11T17:13:00.751Z,22.70
2018-09-11T17:15:31.807Z,22.50
2018-09-11T17:18:03.389Z,22.50
2018-09-11T17:20:33.771Z,22.30
2018-09-11T17:23:04.409Z,22.00
2018-09-11T17:25:35.595Z,21.80
2018-09-11T17:28:06.116Z,21.60
2018-09-11T17:30:37.128Z,21.30
2018-09-11T17:33:07.984Z,21.10
2018-09-11T17:35:40.210Z,20.80
2018-09-11T17:38:10.581Z,20.60
2018-09-11T17:40:41.613Z,20.40
2018-09-11T17:43:12.727Z,20.20
2018-09-11T17:45:45.880Z,20.00
2018-09-11T17:48:16.908Z,19.90
2018-09-11T17:50:48.048Z,19.60
2018-09-11T17:53:20.262Z,19.50
2018-09-11T17:55:52.046Z,19.30
2018-09-11T17:58:24.782Z,19.20
2018-09-11T18:00:55.908Z,19.00
2018-09-11T18:03:27.570Z,18.80
2018-09-11T18:05:58.661Z,18.70
2018-09-11T18:08:30.092Z,18.50
2018-09-11T18:11:01.578Z,18.40
2018-09-11T18:13:33.887Z,18.20
2018-09-11T18:16:05.056Z,18.00
2018-09-11T18:18:37.501Z,17.90
2018-09-11T18:21:08.721Z,17.80
2018-09-11T18:23:40.501Z,17.70
2018-09-11T18:26:13.214Z,17.60
2018-09-11T18:28:44.644Z,17.40
2018-09-11T18:31:15.692Z,17.30
2018-09-11T18:33:47.832Z,17.20
2018-09-11T18:36:19.520Z,17.00
2018-09-11T18:38:52.611Z,16.90
2018-09-11T18:41:24.442Z,16.80
2018-09-11T18:43:56.331Z,16.70
2018-09-11T18:46:27.942Z,16.50
2018-09-11T18:48:59.428Z,16.50
2018-09-11T18:51:31.445Z,16.40
2018-09-11T18:54:04.219Z,16.30
2018-09-11T18:56:35.132Z,16.20
2018-09-11T18:59:05.329Z,16.10
2018-09-11T19:01:36.441Z,16.10
2018-09-11T19:04:08.037Z,16.00
2018-09-11T19:06:38.528Z,15.90
2018-09-11T19:09:10.334Z,15.90
2018-09-11T19:11:42.029Z,15.80
2018-09-11T19:14:13.254Z,15.70
2018-09-11T19:16:43.748Z,15.60
2018-09-11T19:19:14.305Z,15.50
2018-09-11T19:21:45.434Z,15.40
2018-09-11T19:24:15.845Z,15.40
2018-09-11T19:26:46.260Z,15.30
2018-09-11T19:29:17.089Z,15.20
2018-09-11T19:31:47.401Z,15.10
2018-09-11T19:34:18.982Z,15.10
2018-09-11T19:36:50.684Z,15.10
2018-09-11T19:39:24.582Z,15.10
2018-09-11T19:41:56.069Z,15.00
2018-09-11T19:44:26.596Z,15.00
2018-09-11T19:46:58.074Z,14.90
2018-09-11T19:49:29.586Z,14.80
2018-09-11T19:51:59.210Z,14.80
2018-09-11T19:54:29.591Z,14.70
2018-09-11T19:57:00.129Z,14.70
2018-09-11T19:59:31.279Z,14.60
2018-09-11T20:02:02.527Z,14.60
2018-09-11T20:04:33.883Z,14.60
2018-09-11T20:07:05.100Z,14.60
2018-09-11T20:09:37.537Z,14.50
2018-09-11T20:12:08.665Z,14.50
2018-09-11T20:14:39.181Z,14.40
2018-09-11T20:17:10.228Z,14.40
2018-09-11T20:19:41.215Z,14.30
2018-09-11T20:22:12.205Z,14.30
2018-09-11T20:24:43.232Z,14.30
2018-09-11T20:27:13.903Z,14.30
2018-09-11T20:29:44.618Z,14.20
2018-09-11T20:32:15.824Z,14.20
2018-09-11T20:34:46.902Z,14.10
2018-09-11T20:37:18.113Z,14.10
2018-09-11T20:39:49.423Z,14.00
2018-09-11T20:42:20.519Z,14.00
2018-09-11T20:44:52.252Z,14.00
2018-09-11T20:47:23.440Z,14.00
2018-09-11T20:49:54.582Z,14.10
2018-09-11T20:52:25.620Z,14.00
2018-09-11T20:54:57.372Z,14.00
2018-09-11T20:57:28.666Z,14.00
2018-09-11T20:59:59.650Z,13.90
2018-09-11T21:02:30.647Z,13.90
2018-09-11T21:05:02.142Z,13.80
2018-09-11T21:07:32.392Z,13.80
2018-09-11T21:10:03.554Z,13.80
2018-09-11T21:12:34.361Z,13.80
2018-09-11T21:15:05.856Z,13.80
2018-09-11T21:17:36.746Z,13.80
2018-09-11T21:20:07.310Z,13.80
2018-09-11T21:22:38.512Z,13.80
2018-09-11T21:25:09.420Z,13.70
2018-09-11T21:27:39.657Z,13.70
2018-09-11T21:30:10.517Z,13.60
2018-09-11T21:32:40.636Z,13.60
2018-09-11T21:35:10.854Z,13.60
2018-09-11T21:37:42.016Z,13.50
2018-09-11T21:40:12.065Z,13.50
2018-09-11T21:42:43.129Z,13.40
2018-09-11T21:45:13.411Z,13.40
2018-09-11T21:47:43.477Z,13.50
2018-09-11T21:50:14.924Z,13.50
2018-09-11T21:52:45.993Z,13.50
2018-09-11T21:55:16.316Z,13.50
2018-09-11T21:57:47.186Z,13.40
2018-09-11T22:00:18.932Z,13.40
2018-09-11T22:02:50.049Z,13.40
2018-09-11T22:05:21.470Z,13.40
2018-09-11T22:07:52.590Z,13.30
2018-09-11T22:10:22.781Z,13.30
2018-09-11T22:12:53.629Z,13.30
2018-09-11T22:15:24.039Z,13.30
2018-09-11T22:17:54.998Z,13.30
2018-09-11T22:20:25.963Z,13.30
2018-09-11T22:22:56.523Z,13.20
2018-09-11T22:25:27.498Z,13.10
2018-09-11T22:27:57.717Z,13.10
2018-09-11T22:30:28.563Z,13.10
2018-09-11T22:32:58.639Z,13.00
2018-09-11T22:35:29.580Z,13.00
2018-09-11T22:38:00.626Z,13.00
2018-09-11T22:40:32.062Z,13.00
2018-09-11T22:43:03.107Z,13.00
2018-09-11T22:45:33.927Z,13.00
2018-09-11T22:48:04.871Z,12.90
2018-09-11T22:50:37.925Z,12.90
2018-09-11T22:53:08.811Z,12.90
2018-09-11T22:55:39.720Z,12.80
2018-09-11T22:58:10.590Z,12.80
2018-09-11T23:00:41.093Z,12.80
2018-09-11T23:03:12.591Z,12.80
2018-09-11T23:05:43.231Z,12.70
2018-09-11T23:08:14.057Z,12.60
2018-09-11T23:10:44.359Z,12.60
2018-09-11T23:13:15.227Z,12.50
2018-09-11T23:15:46.068Z,12.50
2018-09-11T23:18:16.981Z,12.50
2018-09-11T23:20:47.941Z,12.50
2018-09-11T23:23:18.820Z,12.50
2018-09-11T23:25:49.069Z,12.50
2018-09-11T23:28:20.043Z,12.40
2018-09-11T23:30:50.955Z,12.40
2018-09-11T23:33:22.091Z,12.40
2018-09-11T23:35:53.103Z,12.40
2018-09-11T23:38:23.990Z,12.40
2018-09-11T23:40:54.142Z,12.30
2018-09-11T23:43:25.234Z,12.30
2018-09-11T23:45:56.317Z,12.30
2018-09-11T23:48:27.236Z,12.20
2018-09-11T23:50:58.237Z,12.20
2018-09-11T23:53:29.619Z,12.20
2018-09-11T23:55:59.805Z,12.20
2018-09-11T23:58:30.661Z,12.10
